Latest Weather Observations for Perth Airport

IDW60801

Issued at 11:33 pm WST Saturday 3 December 2016 (issued every 30 minutes, with the page automatically refreshed every 10 minutes)

About weather observations | Map of weather stations | Latest weather observations for WA | Other Formats
Station Details ID: 009021 Name: PERTH AIRPORT Lat: -31.93 Lon: 115.98 Height: 15.4 m
Data from the previous 72 hours. | See also: Recent months at Perth Airport
Date/Time
WST
Temp
°C
App
Temp
°C
Dew
Point
°C
Rel
Hum
%
Delta-T
°C
Wind Press
QNH
hPa
Press
MSL
hPa
Rain since
9am
mm
Dir  Spd
km/h
Gust
km/h
Spd
kts
Gust
kts
03/11:00pm 17.8 16.3 14.1 79 2.1 SSW 15 19 8 10 1011.2 1011.1 0.2
03/10:30pm 18.4 16.6 14.4 77 2.3 SSW 17 22 9 12 1011.2 1011.1 0.2
03/10:00pm 18.5 17.1 14.5 77 2.3 SSW 15 19 8 10 1011.0 1010.9 0.2
03/09:30pm 18.9 17.2 14.6 76 2.5 SW 17 22 9 12 1011.0 1010.9 0.2
03/09:00pm 18.9 17.4 15.2 79 2.2 SW 17 24 9 13 1010.9 1010.8 0.2
03/08:30pm 19.1 16.5 14.8 76 2.5 SW 22 28 12 15 1010.7 1010.6 0.2
03/08:00pm 18.9 17.9 15.7 82 1.9 SW 15 24 8 13 1010.5 1010.4 0.2
03/07:30pm 18.7 17.5 16.0 84 1.6 SW 17 24 9 13 1010.3 1010.2 0.2
03/07:00pm 18.7 16.7 16.5 87 1.3 SW 22 30 12 16 1010.0 1009.9 0.2
03/06:30pm 18.5 16.3 17.0 91 0.9 WSW 24 32 13 17 1009.7 1009.6 0.2
03/06:21pm 18.4 14.8 17.1 92 0.8 WSW 32 52 17 28 1009.6 1009.5 0.2
03/06:16pm 20.4 16.4 14.2 67 3.6 WSW 28 52 15 28 1009.4 1009.3 0.0
03/06:00pm 20.6 17.3 14.1 66 3.8 WSW 24 32 13 17 1009.2 1009.1 0.0
03/05:30pm 21.5 18.3 14.3 63 4.2 WSW 24 33 13 18 1008.9 1008.8 0.0
03/05:00pm 22.1 18.0 13.9 59 4.8 WSW 28 37 15 20 1008.8 1008.7 0.0
03/04:30pm 22.0 19.6 14.5 62 4.4 W 20 33 11 18 1008.7 1008.6 0.0
03/04:00pm 20.7 18.1 14.9 69 3.4 W 22 30 12 16 1008.8 1008.7 0.0
03/03:30pm 20.5 17.7 14.3 67 3.6 W 22 33 12 18 1008.8 1008.7 0.0
03/03:00pm 21.8 18.3 13.3 58 4.9 WSW 24 33 13 18 1008.8 1008.7 0.0
03/02:30pm 22.0 16.6 12.3 54 5.5 SW 32 41 17 22 1008.7 1008.6 0.0
03/02:00pm 22.8 18.2 12.2 51 6.0 WSW 28 39 15 21 1008.9 1008.8 0.0
03/01:30pm 22.4 18.0 11.7 50 6.0 WSW 26 37 14 20 1009.1 1009.0 0.0
03/01:00pm 21.9 17.8 11.5 51 5.8 W 24 37 13 20 1009.0 1008.9 0.0
03/12:30pm 22.0 17.1 11.4 51 5.9 WSW 28 37 15 20 1009.0 1008.9 0.0
03/12:00pm 22.4 17.4 10.8 47 6.4 W 28 37 15 20 1009.0 1008.9 0.0
03/11:30am 21.4 16.6 10.2 49 6.1 W 26 33 14 18 1009.1 1009.0 0.0
03/11:00am 21.3 16.9 10.5 50 5.9 W 24 32 13 17 1009.3 1009.2 0.0
03/10:30am 21.0 16.5 9.9 49 6.0 W 24 41 13 22 1009.2 1009.1 0.0
03/10:00am 20.4 16.2 9.6 50 5.8 WSW 22 33 12 18 1009.2 1009.1 0.0
03/09:30am 21.3 17.3 10.3 49 6.0 WSW 22 30 12 16 1009.2 1009.1 0.0
03/09:00am 20.9 17.0 9.5 48 6.1 SSW 20 28 11 15 1009.2 1009.1 0.0
03/08:30am 20.4 16.4 10.5 53 5.4 SSW 22 32 12 17 1009.2 1009.1 0.0
03/08:00am 19.2 16.5 10.5 57 4.7 SW 15 20 8 11 1009.2 1009.1 0.0
03/07:30am 18.3 15.8 11.1 63 3.9 SSW 15 22 8 12 1009.2 1009.1 0.0
03/07:00am 17.0 15.3 11.1 68 3.2 SSW 11 13 6 7 1008.8 1008.7 0.0
03/06:30am 16.2 14.8 11.0 71 2.8 SSW 9 13 5 7 1008.8 1008.7 0.0
03/06:00am 15.8 13.6 10.7 71 2.7 SSW 13 13 7 7 1008.4 1008.3 0.0
03/05:30am 15.7 13.9 10.8 72 2.6 S 11 13 6 7 1008.1 1008.0 0.0
03/05:00am 15.6 13.8 10.7 72 2.6 S 11 13 6 7 1007.8 1007.7 0.0
03/04:30am 15.6 14.3 11.3 75 2.3 S 9 11 5 6 1007.8 1007.7 0.0
03/04:00am 15.4 13.3 11.3 76 2.2 SSE 13 15 7 8 1007.4 1007.3 0.0
03/03:49am 14.3 12.7 11.7 84 1.4 SSE 11 13 6 7 1007.4 1007.3 0.0
03/03:30am 14.2 13.5 12.0 87 1.2 SW 7 9 4 5 1007.4 1007.3 0.0
03/03:00am 15.8 14.4 12.3 80 1.9 SSW 11 13 6 7 1007.3 1007.2 0.0
03/02:30am 14.8 13.1 12.4 85 1.3 SSW 13 15 7 8 1007.3 1007.2 0.0
03/02:00am 14.8 13.1 12.4 85 1.3 S 13 15 7 8 1007.5 1007.4 0.0
03/01:30am 17.1 15.5 12.8 76 2.4 SSW 13 19 7 10 1007.4 1007.3 0.0
03/01:00am 17.3 16.4 13.6 79 2.1 WSW 11 13 6 7 1007.8 1007.7 0.0
03/12:30am 17.5 16.1 13.4 77 2.3 WSW 13 17 7 9 1008.2 1008.1 0.0
03/12:00am 17.6 16.6 13.4 76 2.4 SW 11 15 6 8 1008.1 1008.0 0.0
 
Date/Time
WST
Temp
°C
App
Temp
°C
Dew
Point
°C
Rel
Hum
%
Delta-T
°C
Wind Press
QNH
hPa
Press
MSL
hPa
Rain since
9am
mm
Dir  Spd
km/h
Gust
km/h
Spd
kts
Gust
kts
02/11:30pm 17.6 16.3 13.7 78 2.2 SW 13 19 7 10 1008.6 1008.5 0.0
02/11:00pm 17.8 16.3 13.0 73 2.7 SW 13 17 7 9 1008.9 1008.8 0.0
02/10:30pm 17.9 16.2 12.3 70 3.1 SW 13 15 7 8 1008.9 1008.8 0.0
02/10:00pm 17.9 16.5 12.1 69 3.2 WSW 11 15 6 8 1009.1 1009.0 0.0
02/09:30pm 17.9 16.2 12.3 70 3.1 SW 13 15 7 8 1009.2 1009.1 0.0
02/09:00pm 18.2 15.9 11.9 66 3.5 SSW 15 19 8 10 1009.1 1009.0 0.0
02/08:30pm 18.3 15.3 12.0 66 3.5 SSW 19 26 10 14 1009.1 1009.0 0.0
02/08:00pm 18.8 15.5 11.7 63 3.9 SSW 20 28 11 15 1009.3 1009.2 0.0
02/07:30pm 19.6 15.4 11.0 57 4.7 SSW 24 30 13 16 1009.4 1009.3 0.0
02/07:00pm 20.5 17.3 11.3 55 5.1 SW 19 26 10 14 1009.0 1008.9 0.0
02/06:30pm 21.1 16.8 10.9 52 5.6 SW 24 30 13 16 1009.0 1008.9 0.0
02/06:00pm 22.0 18.0 10.5 48 6.3 WSW 22 30 12 16 1008.8 1008.7 0.0
02/05:30pm 22.9 18.1 10.4 45 6.9 SW 26 33 14 18 1008.8 1008.7 0.0
02/05:00pm 24.0 19.9 10.2 41 7.6 SW 22 30 12 16 1008.6 1008.5 0.0
02/04:30pm 24.2 20.5 10.3 41 7.7 WSW 20 28 11 15 1008.6 1008.5 0.0
02/04:00pm 24.2 19.5 10.8 43 7.5 WSW 26 33 14 18 1008.7 1008.6 0.0
02/03:30pm 25.4 20.9 10.1 38 8.5 WSW 24 32 13 17 1008.9 1008.8 0.0
02/03:00pm 26.5 22.2 9.2 33 9.5 WSW 22 32 12 17 1008.9 1008.8 0.0
02/02:30pm 26.4 21.4 9.6 34 9.3 W 26 35 14 19 1009.3 1009.2 0.0
02/02:00pm 26.5 22.0 10.2 36 9.1 W 24 33 13 18 1009.4 1009.3 0.0
02/01:30pm 27.7 22.7 11.0 35 9.5 WSW 28 32 15 17 1009.4 1009.3 0.0
02/01:00pm 27.6 25.4 6.0 25 11.3 NNW 7 19 4 10 1009.6 1009.5 0.0
02/12:30pm 27.3 24.5 8.4 30 10.3 N 13 19 7 10 1009.7 1009.6 0.0
02/12:00pm 26.7 24.3 8.5 31 9.9 W 11 15 6 8 1010.2 1010.1 0.0
02/11:30am 26.2 24.4 7.9 31 9.8 NW 7 15 4 8 1010.7 1010.6 0.0
02/11:00am 25.3 23.7 8.6 34 9.0 E 7 15 4 8 1011.3 1011.2 0.0
02/10:30am 24.3 22.6 8.4 36 8.5 WNW 7 11 4 6 1011.8 1011.7 0.0
02/10:00am 23.0 20.6 8.5 39 7.7 SE 11 17 6 9 1012.2 1012.1 0.0
02/09:30am 22.3 20.6 8.3 40 7.4 SSE 7 13 4 7 1012.6 1012.5 0.0
02/09:00am 21.5 19.4 8.1 42 7.0 E 9 17 5 9 1012.7 1012.6 0.0
02/08:30am 20.6 16.5 7.9 44 6.6 ENE 19 28 10 15 1012.8 1012.7 0.0
02/08:00am 19.2 14.8 7.4 46 6.0 E 20 28 11 15 1012.9 1012.8 0.0
02/07:30am 17.3 12.1 7.1 51 5.1 E 24 35 13 19 1013.2 1013.1 0.0
02/07:00am 16.3 11.4 7.0 54 4.6 E 22 33 12 18 1013.4 1013.3 0.0
02/06:30am 15.3 10.0 6.9 57 4.1 ENE 24 32 13 17 1013.1 1013.0 0.0
02/06:00am 14.3 9.4 6.9 61 3.6 ENE 22 35 12 19 1012.9 1012.8 0.0
02/05:30am 13.9 8.6 6.7 62 3.5 E 24 37 13 20 1012.7 1012.6 0.0
02/05:00am 14.0 9.1 6.8 62 3.5 E 22 33 12 18 1013.1 1013.0 0.0
02/04:30am 14.3 9.4 6.7 60 3.7 E 22 35 12 19 1012.9 1012.8 0.0
02/04:00am 14.7 9.4 6.7 58 3.9 E 24 37 13 20 1012.5 1012.4 0.0
02/03:30am 15.1 10.7 6.7 57 4.1 E 19 32 10 17 1012.5 1012.4 0.0
02/03:00am 15.4 10.9 6.8 56 4.2 E 20 33 11 18 1012.3 1012.2 0.0
02/02:30am 15.5 9.9 7.0 57 4.2 ESE 26 37 14 20 1012.1 1012.0 0.0
02/02:00am 15.8 12.6 6.9 55 4.4 ESE 13 17 7 9 1012.0 1011.9 0.0
02/01:30am 13.4 10.6 8.6 73 2.4 SSE 13 19 7 10 1012.4 1012.3 0.0
02/01:00am 14.4 10.8 8.4 67 3.0 S 17 20 9 11 1012.5 1012.4 0.0
02/12:30am 15.0 10.1 8.5 65 3.3 S 24 28 13 15 1012.8 1012.7 0.0
02/12:00am 15.9 11.6 8.0 59 4.0 SSW 20 28 11 15 1013.0 1012.9 0.0
 
Date/Time
WST
Temp
°C
App
Temp
°C
Dew
Point
°C
Rel
Hum
%
Delta-T
°C
Wind Press
QNH
hPa
Press
MSL
hPa
Rain since
9am
mm
Dir  Spd
km/h
Gust
km/h
Spd
kts
Gust
kts
01/11:30pm 16.6 12.6 9.1 61 3.9 SSW 20 28 11 15 1013.2 1013.1 0.0
01/11:00pm 17.2 13.2 8.9 58 4.3 S 20 28 11 15 1013.5 1013.4 0.0
01/10:30pm 16.5 14.6 11.7 73 2.6 S 13 17 7 9 1013.8 1013.7 0.0
01/10:00pm 17.1 15.3 12.0 72 2.8 SSW 13 17 7 9 1013.9 1013.8 0.0
01/09:30pm 18.2 15.4 11.4 64 3.7 SSW 17 19 9 10 1014.0 1013.9 0.0
01/09:00pm 18.3 15.5 11.5 64 3.7 SSW 17 22 9 12 1014.0 1013.9 0.0
01/08:30pm 18.3 14.9 11.3 63 3.8 SW 20 28 11 15 1014.1 1014.0 0.0
01/08:00pm 18.5 14.4 11.4 63 3.9 SW 24 32 13 17 1014.0 1013.9 0.0
01/07:30pm 19.0 15.1 10.9 59 4.4 SW 22 32 12 17 1013.9 1013.8 0.0
01/07:00pm 19.5 15.2 10.9 57 4.7 SW 24 28 13 15 1013.7 1013.6 0.0
01/06:30pm 20.4 14.9 9.3 49 5.9 SW 28 35 15 19 1013.4 1013.3 0.0
01/06:00pm 21.2 15.7 9.2 46 6.4 SW 28 33 15 18 1013.2 1013.1 0.0
01/05:30pm 21.7 16.7 9.6 46 6.5 SW 26 33 14 18 1013.1 1013.0 0.0
01/05:00pm 22.3 16.5 9.3 43 7.0 SW 30 41 16 22 1013.1 1013.0 0.0
01/04:30pm 21.9 15.3 7.7 40 7.4 SW 32 39 17 21 1013.2 1013.1 0.0
01/04:00pm 22.5 16.5 8.5 40 7.4 SW 30 37 16 20 1013.2 1013.1 0.0
01/03:30pm 23.1 17.4 8.4 39 7.8 SW 28 35 15 19 1013.4 1013.3 0.0
01/03:00pm 23.2 17.4 8.0 37 8.0 SW 28 35 15 19 1013.6 1013.5 0.0
01/02:30pm 23.7 18.0 8.5 38 8.1 SW 28 39 15 21 1013.7 1013.6 0.0
01/02:00pm 23.4 17.9 9.1 40 7.7 SW 28 37 15 20 1013.9 1013.8 0.0
01/01:30pm 24.2 19.5 9.3 38 8.1 SW 24 33 13 18 1014.0 1013.9 0.0
01/01:00pm 24.2 20.8 9.3 38 8.1 SW 17 32 9 17 1014.2 1014.1 0.0
01/12:30pm 24.4 21.0 9.0 37 8.3 SW 17 28 9 15 1014.6 1014.5 0.0
01/12:00pm 23.5 20.8 9.0 39 7.8 SSW 13 20 7 11 1015.1 1015.0 0.0
01/11:30am 22.0 19.5 9.8 45 6.6 SSE 13 19 7 10 1015.4 1015.3 0.0
01/11:00am 21.5 19.5 10.3 49 6.1 SE 11 17 6 9 1015.8 1015.7 0.0
01/10:30am 21.4 19.4 10.1 48 6.1 S 11 17 6 9 1016.0 1015.9 0.0
01/10:00am 20.8 18.5 10.3 51 5.7 SSE 13 17 7 9 1016.1 1016.0 0.0
01/09:30am 20.1 17.0 10.3 53 5.3 SE 17 24 9 13 1016.3 1016.2 0.0
01/09:00am 20.0 17.6 10.1 53 5.3 SE 13 19 7 10 1016.5 1016.4 0.0
01/08:30am 19.9 16.3 10.7 55 5.0 SSE 20 35 11 19 1016.5 1016.4 0.0
01/08:00am 20.0 16.6 11.3 57 4.8 ESE 20 28 11 15 1016.3 1016.2 0.0
01/07:30am 19.7 17.2 11.1 57 4.7 SE 15 22 8 12 1016.2 1016.2 0.0
01/07:00am 16.9 15.9 10.9 67 3.2 E 7 13 4 7 1016.1 1016.1 0.0
01/06:30am 15.5 14.4 10.8 73 2.5 E 7 9 4 5 1015.9 1015.9 0.0
01/06:00am 13.1 11.7 10.8 86 1.2 SE 9 13 5 7 1015.7 1015.7 0.0
01/05:30am 11.4 9.4 10.0 91 0.7 S 11 13 6 7 1015.4 1015.4 0.0
01/05:00am 11.2 9.5 9.8 91 0.7 SSW 9 11 5 6 1015.2 1015.2 0.0
01/04:30am 11.8 10.1 10.0 89 0.9 SSW 9 11 5 6 1014.9 1014.9 0.0
01/04:00am 12.3 11.3 10.2 87 1.1 SSW 6 7 3 4 1014.5 1014.5 0.0
01/03:30am 13.1 12.1 10.4 84 1.4 SSW 6 9 3 5 1014.5 1014.5 0.0
01/03:00am 14.2 12.8 10.8 80 1.8 SSW 9 11 5 6 1014.6 1014.6 0.0
01/02:30am 14.6 13.1 10.6 77 2.1 SSW 9 11 5 6 1014.8 1014.8 0.0
01/02:00am 15.3 13.4 10.6 73 2.5 S 11 15 6 8 1014.8 1014.8 0.0
01/01:30am 15.6 12.9 10.5 71 2.7 S 15 17 8 9 1014.7 1014.7 0.0
01/01:00am 16.2 13.1 10.3 68 3.1 S 17 22 9 12 1014.8 1014.8 0.0
01/12:30am 16.2 12.7 11.0 71 2.8 S 20 28 11 15 1014.9 1014.9 0.0
01/12:00am 17.0 12.4 11.1 68 3.2 S 26 32 14 17 1014.9 1014.9 0.0

Other Formats:

Comma delimited format used in spreadsheet applications
http://www.bom.gov.au/fwo/IDW60801/IDW60801.94610.axf

JavaScript Object Notation format (JSON) in row-major order
http://www.bom.gov.au/fwo/IDW60801/IDW60801.94610.json